Terminal Aerodrome Forecast
Issued by NWS Topeka, KS

Home | Current Version | Previous Version | Text Only | Print | Product List | Glossary Off
Versions: 1 2 3 4 5 6 7 8 9 10 11 12 13 14 15 16 17 18 19 20 21 22 23 24 25 26 27

246
FTUS43 KTOP 250049 AAA
TAFTOP
TAF AMD
KTOP 250049Z 2501/2524 09008KT P6SM VCTS SCT050CB
     FM250300 01011KT P6SM -SHRA VCTS OVC015CB
     FM250600 36011G19KT P6SM VCSH OVC008
     FM251600 35013KT P6SM VCSH OVC013=

USA.gov is the U.S. government's official web portal to all federal, state and local government web resources and services.